sensor_id;sensor_type;location;lat;lon;timestamp;P1;durP1;ratioP1;P2;durP2;ratioP2
22812;SDS011;11573;51.334;3.244;2023-04-02T00:00:34;25.60;;;12.00;;
22812;SDS011;11573;51.334;3.244;2023-04-02T00:03:06;26.55;;;10.90;;
22812;SDS011;11573;51.334;3.244;2023-04-02T00:05:39;23.85;;;10.95;;
22812;SDS011;11573;51.334;3.244;2023-04-02T00:08:27;34.03;;;11.38;;
22812;SDS011;11573;51.334;3.244;2023-04-02T00:11:04;24.77;;;12.07;;
22812;SDS011;11573;51.334;3.244;2023-04-02T00:13:35;28.02;;;13.82;;
22812;SDS011;11573;51.334;3.244;2023-04-02T00:16:07;26.25;;;13.45;;
22812;SDS011;11573;51.334;3.244;2023-04-02T00:18:43;25.80;;;13.88;;
22812;SDS011;11573;51.334;3.244;2023-04-02T00:21:20;27.63;;;13.88;;
22812;SDS011;11573;51.334;3.244;2023-04-02T00:23:52;28.52;;;14.02;;
22812;SDS011;11573;51.334;3.244;2023-04-02T00:28:50;33.50;;;15.13;;
22812;SDS011;11573;51.334;3.244;2023-04-02T00:31:18;25.00;;;14.27;;
22812;SDS011;11573;51.334;3.244;2023-04-02T00:33:45;27.00;;;14.45;;
22812;SDS011;11573;51.334;3.244;2023-04-02T00:36:14;26.27;;;13.27;;
22812;SDS011;11573;51.334;3.244;2023-04-02T00:38:45;27.98;;;13.00;;
22812;SDS011;11573;51.334;3.244;2023-04-02T00:41:16;36.33;;;16.33;;
22812;SDS011;11573;51.334;3.244;2023-04-02T00:43:47;31.25;;;15.05;;
22812;SDS011;11573;51.334;3.244;2023-04-02T00:46:20;31.92;;;13.75;;
22812;SDS011;11573;51.334;3.244;2023-04-02T00:51:40;36.35;;;13.55;;
22812;SDS011;11573;51.334;3.244;2023-04-02T00:54:13;33.28;;;13.48;;
22812;SDS011;11573;51.334;3.244;2023-04-02T00:56:47;38.38;;;14.43;;
22812;SDS011;11573;51.334;3.244;2023-04-02T01:07:45;33.17;;;15.10;;
22812;SDS011;11573;51.334;3.244;2023-04-02T01:10:51;34.58;;;16.35;;
22812;SDS011;11573;51.334;3.244;2023-04-02T01:14:10;34.75;;;15.68;;
22812;SDS011;11573;51.334;3.244;2023-04-02T01:16:51;35.35;;;16.55;;
22812;SDS011;11573;51.334;3.244;2023-04-02T01:19:52;36.83;;;16.45;;
22812;SDS011;11573;51.334;3.244;2023-04-02T01:25:07;35.28;;;16.38;;
22812;SDS011;11573;51.334;3.244;2023-04-02T01:27:48;32.33;;;15.45;;
22812;SDS011;11573;51.334;3.244;2023-04-02T01:30:20;33.58;;;15.73;;
22812;SDS011;11573;51.334;3.244;2023-04-02T01:32:48;41.20;;;15.30;;
22812;SDS011;11573;51.334;3.244;2023-04-02T01:35:16;28.20;;;14.10;;
22812;SDS011;11573;51.334;3.244;2023-04-02T01:40:25;35.72;;;14.23;;
22812;SDS011;11573;51.334;3.244;2023-04-02T01:43:19;37.65;;;14.93;;
22812;SDS011;11573;51.334;3.244;2023-04-02T01:46:04;24.85;;;12.77;;
22812;SDS011;11573;51.334;3.244;2023-04-02T01:48:49;35.38;;;13.98;;
22812;SDS011;11573;51.334;3.244;2023-04-02T01:51:23;31.85;;;13.82;;
22812;SDS011;11573;51.334;3.244;2023-04-02T01:53:53;28.95;;;14.13;;
22812;SDS011;11573;51.334;3.244;2023-04-02T01:56:21;35.97;;;14.35;;
22812;SDS011;11573;51.334;3.244;2023-04-02T01:58:48;40.20;;;16.15;;
22812;SDS011;11573;51.334;3.244;2023-04-02T02:01:17;33.42;;;15.68;;
22812;SDS011;11573;51.334;3.244;2023-04-02T02:03:50;36.88;;;15.55;;
22812;SDS011;11573;51.334;3.244;2023-04-02T02:06:18;28.65;;;15.10;;
22812;SDS011;11573;51.334;3.244;2023-04-02T02:11:26;31.92;;;14.30;;
22812;SDS011;11573;51.334;3.244;2023-04-02T02:13:56;26.92;;;13.70;;
22812;SDS011;11573;51.334;3.244;2023-04-02T02:16:25;31.67;;;13.18;;
22812;SDS011;11573;51.334;3.244;2023-04-02T02:18:54;31.85;;;12.93;;
22812;SDS011;11573;51.334;3.244;2023-04-02T02:24:06;24.23;;;10.05;;
22812;SDS011;11573;51.334;3.244;2023-04-02T02:26:42;22.73;;;10.07;;
22812;SDS011;11573;51.334;3.244;2023-04-02T02:29:14;25.02;;;10.82;;
22812;SDS011;11573;51.334;3.244;2023-04-02T02:31:45;24.60;;;12.98;;
22812;SDS011;11573;51.334;3.244;2023-04-02T02:34:21;23.45;;;11.98;;
22812;SDS011;11573;51.334;3.244;2023-04-02T02:36:55;31.77;;;12.15;;
22812;SDS011;11573;51.334;3.244;2023-04-02T02:42:16;21.98;;;10.45;;
22812;SDS011;11573;51.334;3.244;2023-04-02T02:44:52;31.27;;;12.20;;
22812;SDS011;11573;51.334;3.244;2023-04-02T02:47:28;29.90;;;12.68;;
22812;SDS011;11573;51.334;3.244;2023-04-02T02:50:02;28.83;;;13.68;;
22812;SDS011;11573;51.334;3.244;2023-04-02T02:52:36;32.95;;;15.00;;
22812;SDS011;11573;51.334;3.244;2023-04-02T02:55:10;22.83;;;12.70;;
22812;SDS011;11573;51.334;3.244;2023-04-02T02:58:01;27.30;;;11.93;;
22812;SDS011;11573;51.334;3.244;2023-04-02T03:00:43;24.70;;;11.75;;
22812;SDS011;11573;51.334;3.244;2023-04-02T03:03:19;28.08;;;11.75;;
22812;SDS011;11573;51.334;3.244;2023-04-02T03:06:02;27.42;;;11.50;;
22812;SDS011;11573;51.334;3.244;2023-04-02T03:08:40;25.23;;;13.75;;
22812;SDS011;11573;51.334;3.244;2023-04-02T03:11:33;26.80;;;14.00;;
22812;SDS011;11573;51.334;3.244;2023-04-02T03:14:29;26.33;;;13.13;;
22812;SDS011;11573;51.334;3.244;2023-04-02T03:17:21;22.27;;;11.80;;
22812;SDS011;11573;51.334;3.244;2023-04-02T03:20:06;24.25;;;11.27;;
22812;SDS011;11573;51.334;3.244;2023-04-02T03:22:42;28.90;;;10.57;;
22812;SDS011;11573;51.334;3.244;2023-04-02T03:28:03;22.20;;;10.65;;
22812;SDS011;11573;51.334;3.244;2023-04-02T03:36:04;23.88;;;9.65;;
22812;SDS011;11573;51.334;3.244;2023-04-02T03:41:45;15.63;;;8.43;;
22812;SDS011;11573;51.334;3.244;2023-04-02T03:47:18;18.25;;;9.13;;
22812;SDS011;11573;51.334;3.244;2023-04-02T03:50:07;21.73;;;9.27;;
22812;SDS011;11573;51.334;3.244;2023-04-02T03:52:44;21.77;;;9.55;;
22812;SDS011;11573;51.334;3.244;2023-04-02T03:55:27;25.20;;;10.35;;
22812;SDS011;11573;51.334;3.244;2023-04-02T04:01:23;20.75;;;10.63;;
22812;SDS011;11573;51.334;3.244;2023-04-02T04:03:54;27.63;;;11.32;;
22812;SDS011;11573;51.334;3.244;2023-04-02T04:06:28;35.28;;;10.02;;
22812;SDS011;11573;51.334;3.244;2023-04-02T04:08:59;21.65;;;8.48;;
22812;SDS011;11573;51.334;3.244;2023-04-02T04:11:44;22.70;;;9.43;;
22812;SDS011;11573;51.334;3.244;2023-04-02T04:14:19;16.88;;;7.63;;
22812;SDS011;11573;51.334;3.244;2023-04-02T04:17:00;24.10;;;8.50;;
22812;SDS011;11573;51.334;3.244;2023-04-02T04:19:40;22.08;;;9.60;;
22812;SDS011;11573;51.334;3.244;2023-04-02T04:22:16;22.80;;;12.40;;
22812;SDS011;11573;51.334;3.244;2023-04-02T04:24:49;24.80;;;10.80;;
22812;SDS011;11573;51.334;3.244;2023-04-02T04:27:23;26.00;;;9.13;;
22812;SDS011;11573;51.334;3.244;2023-04-02T04:30:14;16.02;;;6.93;;
22812;SDS011;11573;51.334;3.244;2023-04-02T04:32:57;19.35;;;7.13;;
22812;SDS011;11573;51.334;3.244;2023-04-02T04:35:36;19.20;;;7.82;;
22812;SDS011;11573;51.334;3.244;2023-04-02T04:41:13;25.35;;;9.27;;
22812;SDS011;11573;51.334;3.244;2023-04-02T04:43:53;32.03;;;8.73;;
22812;SDS011;11573;51.334;3.244;2023-04-02T04:46:54;24.50;;;8.85;;
22812;SDS011;11573;51.334;3.244;2023-04-02T04:49:31;24.70;;;8.40;;
22812;SDS011;11573;51.334;3.244;2023-04-02T04:52:22;17.38;;;8.55;;
22812;SDS011;11573;51.334;3.244;2023-04-02T04:54:51;15.50;;;8.02;;
22812;SDS011;11573;51.334;3.244;2023-04-02T04:57:36;20.42;;;7.70;;
22812;SDS011;11573;51.334;3.244;2023-04-02T05:00:13;17.85;;;6.50;;
22812;SDS011;11573;51.334;3.244;2023-04-02T05:05:42;17.85;;;7.07;;
22812;SDS011;11573;51.334;3.244;2023-04-02T05:08:21;21.95;;;7.05;;
22812;SDS011;11573;51.334;3.244;2023-04-02T05:11:00;21.13;;;7.70;;
22812;SDS011;11573;51.334;3.244;2023-04-02T05:13:33;17.05;;;6.50;;
22812;SDS011;11573;51.334;3.244;2023-04-02T05:16:12;20.35;;;6.45;;
22812;SDS011;11573;51.334;3.244;2023-04-02T05:18:51;20.65;;;7.47;;
22812;SDS011;11573;51.334;3.244;2023-04-02T05:24:31;18.35;;;7.95;;
22812;SDS011;11573;51.334;3.244;2023-04-02T05:30:06;26.70;;;8.30;;
22812;SDS011;11573;51.334;3.244;2023-04-02T05:32:36;19.88;;;8.60;;
22812;SDS011;11573;51.334;3.244;2023-04-02T05:35:13;19.77;;;8.60;;
22812;SDS011;11573;51.334;3.244;2023-04-02T05:37:42;20.25;;;9.88;;
22812;SDS011;11573;51.334;3.244;2023-04-02T05:40:18;21.73;;;9.05;;
22812;SDS011;11573;51.334;3.244;2023-04-02T05:42:54;27.88;;;8.73;;
22812;SDS011;11573;51.334;3.244;2023-04-02T05:47:59;23.75;;;11.40;;
22812;SDS011;11573;51.334;3.244;2023-04-02T05:50:36;28.67;;;13.00;;
22812;SDS011;11573;51.334;3.244;2023-04-02T05:56:00;27.23;;;14.73;;
22812;SDS011;11573;51.334;3.244;2023-04-02T05:58:51;32.53;;;15.23;;
22812;SDS011;11573;51.334;3.244;2023-04-02T06:01:41;31.45;;;15.43;;
22812;SDS011;11573;51.334;3.244;2023-04-02T06:12:53;26.40;;;18.05;;
22812;SDS011;11573;51.334;3.244;2023-04-02T06:15:32;28.63;;;17.83;;
22812;SDS011;11573;51.334;3.244;2023-04-02T06:20:55;36.92;;;21.05;;
22812;SDS011;11573;51.334;3.244;2023-04-02T06:28:56;28.15;;;17.45;;
22812;SDS011;11573;51.334;3.244;2023-04-02T06:31:41;27.67;;;19.70;;
22812;SDS011;11573;51.334;3.244;2023-04-02T06:34:19;32.67;;;19.05;;
22812;SDS011;11573;51.334;3.244;2023-04-02T06:36:54;23.70;;;16.10;;
22812;SDS011;11573;51.334;3.244;2023-04-02T06:39:25;33.28;;;17.85;;
22812;SDS011;11573;51.334;3.244;2023-04-02T06:42:01;25.25;;;17.08;;
22812;SDS011;11573;51.334;3.244;2023-04-02T06:45:13;25.30;;;17.42;;
22812;SDS011;11573;51.334;3.244;2023-04-02T06:48:08;21.60;;;16.58;;
22812;SDS011;11573;51.334;3.244;2023-04-02T06:50:44;21.55;;;15.30;;
22812;SDS011;11573;51.334;3.244;2023-04-02T06:53:22;20.33;;;13.18;;
22812;SDS011;11573;51.334;3.244;2023-04-02T06:58:36;23.70;;;13.88;;
22812;SDS011;11573;51.334;3.244;2023-04-02T07:01:03;21.13;;;11.68;;
22812;SDS011;11573;51.334;3.244;2023-04-02T07:03:37;20.02;;;11.25;;
22812;SDS011;11573;51.334;3.244;2023-04-02T07:06:19;20.00;;;11.43;;
22812;SDS011;11573;51.334;3.244;2023-04-02T07:08:49;25.92;;;11.88;;
22812;SDS011;11573;51.334;3.244;2023-04-02T07:11:18;20.48;;;11.32;;
22812;SDS011;11573;51.334;3.244;2023-04-02T07:13:50;18.45;;;11.95;;
22812;SDS011;11573;51.334;3.244;2023-04-02T07:16:19;28.88;;;13.07;;
22812;SDS011;11573;51.334;3.244;2023-04-02T07:18:48;21.80;;;12.98;;
22812;SDS011;11573;51.334;3.244;2023-04-02T07:21:15;30.83;;;14.38;;
22812;SDS011;11573;51.334;3.244;2023-04-02T07:23:43;24.35;;;13.93;;
22812;SDS011;11573;51.334;3.244;2023-04-02T07:26:14;23.15;;;13.82;;
22812;SDS011;11573;51.334;3.244;2023-04-02T07:28:43;20.70;;;13.75;;
22812;SDS011;11573;51.334;3.244;2023-04-02T07:31:14;32.45;;;17.75;;
22812;SDS011;11573;51.334;3.244;2023-04-02T07:33:42;26.20;;;12.40;;
22812;SDS011;11573;51.334;3.244;2023-04-02T07:36:17;19.83;;;10.88;;
22812;SDS011;11573;51.334;3.244;2023-04-02T07:38:48;20.73;;;10.57;;
22812;SDS011;11573;51.334;3.244;2023-04-02T07:41:16;19.42;;;11.73;;
22812;SDS011;11573;51.334;3.244;2023-04-02T07:43:44;17.83;;;12.20;;
22812;SDS011;11573;51.334;3.244;2023-04-02T07:46:12;21.83;;;12.82;;
22812;SDS011;11573;51.334;3.244;2023-04-02T07:48:45;18.58;;;13.25;;
22812;SDS011;11573;51.334;3.244;2023-04-02T07:51:23;21.27;;;13.15;;
22812;SDS011;11573;51.334;3.244;2023-04-02T07:53:51;21.92;;;13.35;;
22812;SDS011;11573;51.334;3.244;2023-04-02T07:56:22;16.75;;;10.38;;
22812;SDS011;11573;51.334;3.244;2023-04-02T07:58:50;14.30;;;9.43;;
22812;SDS011;11573;51.334;3.244;2023-04-02T08:01:19;17.42;;;9.32;;
22812;SDS011;11573;51.334;3.244;2023-04-02T08:03:51;17.63;;;10.60;;
22812;SDS011;11573;51.334;3.244;2023-04-02T08:06:20;22.08;;;11.50;;
22812;SDS011;11573;51.334;3.244;2023-04-02T08:08:47;26.65;;;12.77;;
22812;SDS011;11573;51.334;3.244;2023-04-02T08:11:14;23.40;;;12.90;;
22812;SDS011;11573;51.334;3.244;2023-04-02T08:13:42;21.98;;;11.50;;
22812;SDS011;11573;51.334;3.244;2023-04-02T08:16:09;20.20;;;11.02;;
22812;SDS011;11573;51.334;3.244;2023-04-02T08:18:36;24.00;;;13.32;;
22812;SDS011;11573;51.334;3.244;2023-04-02T08:21:07;23.30;;;9.95;;
22812;SDS011;11573;51.334;3.244;2023-04-02T08:23:35;16.90;;;10.20;;
22812;SDS011;11573;51.334;3.244;2023-04-02T08:26:03;22.80;;;11.75;;
22812;SDS011;11573;51.334;3.244;2023-04-02T08:28:31;17.80;;;11.70;;
22812;SDS011;11573;51.334;3.244;2023-04-02T08:30:58;19.88;;;10.45;;
22812;SDS011;11573;51.334;3.244;2023-04-02T08:33:25;22.77;;;10.82;;
22812;SDS011;11573;51.334;3.244;2023-04-02T08:35:52;19.40;;;10.93;;
22812;SDS011;11573;51.334;3.244;2023-04-02T08:38:20;20.27;;;11.20;;
22812;SDS011;11573;51.334;3.244;2023-04-02T08:40:48;21.65;;;11.75;;
22812;SDS011;11573;51.334;3.244;2023-04-02T08:48:46;22.50;;;11.15;;
22812;SDS011;11573;51.334;3.244;2023-04-02T08:51:27;17.55;;;11.35;;
22812;SDS011;11573;51.334;3.244;2023-04-02T08:54:23;12.75;;;8.07;;
22812;SDS011;11573;51.334;3.244;2023-04-02T09:04:46;19.08;;;10.95;;
22812;SDS011;11573;51.334;3.244;2023-04-02T09:07:15;20.60;;;13.07;;
22812;SDS011;11573;51.334;3.244;2023-04-02T09:09:43;18.17;;;10.45;;
22812;SDS011;11573;51.334;3.244;2023-04-02T09:12:23;21.63;;;11.00;;
22812;SDS011;11573;51.334;3.244;2023-04-02T09:14:57;15.88;;;10.10;;
22812;SDS011;11573;51.334;3.244;2023-04-02T09:17:29;19.05;;;9.93;;
22812;SDS011;11573;51.334;3.244;2023-04-02T09:20:25;18.38;;;9.93;;
22812;SDS011;11573;51.334;3.244;2023-04-02T09:22:54;16.30;;;9.27;;
22812;SDS011;11573;51.334;3.244;2023-04-02T09:25:23;21.63;;;9.40;;
22812;SDS011;11573;51.334;3.244;2023-04-02T09:27:53;13.20;;;8.15;;
22812;SDS011;11573;51.334;3.244;2023-04-02T09:32:56;13.65;;;9.68;;
22812;SDS011;11573;51.334;3.244;2023-04-02T09:35:29;16.45;;;8.43;;
22812;SDS011;11573;51.334;3.244;2023-04-02T09:43:18;20.67;;;9.52;;
22812;SDS011;11573;51.334;3.244;2023-04-02T09:56:29;13.65;;;8.45;;
22812;SDS011;11573;51.334;3.244;2023-04-02T09:59:14;9.38;;;7.05;;
22812;SDS011;11573;51.334;3.244;2023-04-02T10:04:34;20.20;;;6.85;;
22812;SDS011;11573;51.334;3.244;2023-04-02T10:10:13;16.20;;;7.18;;
22812;SDS011;11573;51.334;3.244;2023-04-02T10:12:46;21.25;;;9.77;;
22812;SDS011;11573;51.334;3.244;2023-04-02T10:15:19;15.10;;;8.73;;
22812;SDS011;11573;51.334;3.244;2023-04-02T10:17:53;18.42;;;9.20;;
22812;SDS011;11573;51.334;3.244;2023-04-02T10:20:25;15.20;;;7.55;;
22812;SDS011;11573;51.334;3.244;2023-04-02T10:22:59;16.88;;;7.82;;
22812;SDS011;11573;51.334;3.244;2023-04-02T10:25:26;18.70;;;8.95;;
22812;SDS011;11573;51.334;3.244;2023-04-02T10:28:05;13.02;;;8.07;;
22812;SDS011;11573;51.334;3.244;2023-04-02T10:30:41;14.40;;;7.35;;
22812;SDS011;11573;51.334;3.244;2023-04-02T10:33:24;11.30;;;8.02;;
22812;SDS011;11573;51.334;3.244;2023-04-02T10:41:52;16.30;;;7.45;;
22812;SDS011;11573;51.334;3.244;2023-04-02T10:44:42;14.05;;;8.20;;
22812;SDS011;11573;51.334;3.244;2023-04-02T10:52:48;16.50;;;8.00;;
22812;SDS011;11573;51.334;3.244;2023-04-02T10:55:24;15.65;;;8.23;;
22812;SDS011;11573;51.334;3.244;2023-04-02T10:57:56;14.07;;;6.28;;
22812;SDS011;11573;51.334;3.244;2023-04-02T11:00:31;15.55;;;6.30;;
22812;SDS011;11573;51.334;3.244;2023-04-02T11:03:12;12.85;;;6.00;;
22812;SDS011;11573;51.334;3.244;2023-04-02T11:06:01;9.50;;;5.20;;
22812;SDS011;11573;51.334;3.244;2023-04-02T11:08:45;10.52;;;5.53;;
22812;SDS011;11573;51.334;3.244;2023-04-02T11:11:16;15.43;;;6.63;;
22812;SDS011;11573;51.334;3.244;2023-04-02T11:16:24;10.85;;;5.70;;
22812;SDS011;11573;51.334;3.244;2023-04-02T11:19:35;9.40;;;6.20;;
22812;SDS011;11573;51.334;3.244;2023-04-02T11:21:46;9.88;;;4.93;;
22812;SDS011;11573;51.334;3.244;2023-04-02T11:29:40;8.05;;;4.38;;
22812;SDS011;11573;51.334;3.244;2023-04-02T11:32:12;9.43;;;3.83;;
22812;SDS011;11573;51.334;3.244;2023-04-02T11:37:35;6.45;;;3.60;;
22812;SDS011;11573;51.334;3.244;2023-04-02T11:42:47;7.57;;;4.22;;
22812;SDS011;11573;51.334;3.244;2023-04-02T11:50:43;9.63;;;5.70;;
22812;SDS011;11573;51.334;3.244;2023-04-02T11:55:44;10.88;;;4.60;;
22812;SDS011;11573;51.334;3.244;2023-04-02T12:09:53;16.48;;;11.90;;
22812;SDS011;11573;51.334;3.244;2023-04-02T12:12:43;10.50;;;5.63;;
22812;SDS011;11573;51.334;3.244;2023-04-02T12:15:29;10.88;;;6.50;;
22812;SDS011;11573;51.334;3.244;2023-04-02T12:18:11;11.13;;;5.05;;
22812;SDS011;11573;51.334;3.244;2023-04-02T12:20:39;11.65;;;6.13;;
22812;SDS011;11573;51.334;3.244;2023-04-02T12:23:14;10.45;;;4.72;;
22812;SDS011;11573;51.334;3.244;2023-04-02T12:25:51;13.32;;;6.18;;
22812;SDS011;11573;51.334;3.244;2023-04-02T12:28:22;19.45;;;11.07;;
22812;SDS011;11573;51.334;3.244;2023-04-02T12:30:50;9.40;;;6.70;;
22812;SDS011;11573;51.334;3.244;2023-04-02T12:33:28;13.80;;;7.00;;
22812;SDS011;11573;51.334;3.244;2023-04-02T12:36:00;11.45;;;7.18;;
22812;SDS011;11573;51.334;3.244;2023-04-02T12:38:29;9.57;;;6.60;;
22812;SDS011;11573;51.334;3.244;2023-04-02T12:41:00;9.20;;;6.88;;
22812;SDS011;11573;51.334;3.244;2023-04-02T12:43:32;11.80;;;6.80;;
22812;SDS011;11573;51.334;3.244;2023-04-02T12:46:02;13.65;;;9.50;;
22812;SDS011;11573;51.334;3.244;2023-04-02T12:48:31;10.55;;;6.57;;
22812;SDS011;11573;51.334;3.244;2023-04-02T12:50:58;17.90;;;11.65;;
22812;SDS011;11573;51.334;3.244;2023-04-02T12:53:35;7.63;;;6.00;;
22812;SDS011;11573;51.334;3.244;2023-04-02T12:56:04;11.02;;;7.35;;
22812;SDS011;11573;51.334;3.244;2023-04-02T12:58:40;10.82;;;7.30;;
22812;SDS011;11573;51.334;3.244;2023-04-02T13:01:12;14.35;;;10.48;;
22812;SDS011;11573;51.334;3.244;2023-04-02T13:06:34;10.30;;;7.38;;
22812;SDS011;11573;51.334;3.244;2023-04-02T13:09:03;14.63;;;8.90;;
22812;SDS011;11573;51.334;3.244;2023-04-02T13:11:35;11.38;;;7.63;;
22812;SDS011;11573;51.334;3.244;2023-04-02T13:14:12;12.65;;;8.55;;
22812;SDS011;11573;51.334;3.244;2023-04-02T13:16:44;14.63;;;8.00;;
22812;SDS011;11573;51.334;3.244;2023-04-02T13:19:28;18.15;;;11.60;;
22812;SDS011;11573;51.334;3.244;2023-04-02T13:22:00;7.43;;;6.15;;
22812;SDS011;11573;51.334;3.244;2023-04-02T13:24:31;42.35;;;21.80;;
22812;SDS011;11573;51.334;3.244;2023-04-02T13:26:59;9.57;;;5.82;;
22812;SDS011;11573;51.334;3.244;2023-04-02T13:31:56;11.82;;;6.95;;
22812;SDS011;11573;51.334;3.244;2023-04-02T13:34:37;8.63;;;6.07;;
22812;SDS011;11573;51.334;3.244;2023-04-02T13:37:04;8.25;;;6.35;;
22812;SDS011;11573;51.334;3.244;2023-04-02T13:39:31;8.02;;;5.38;;
22812;SDS011;11573;51.334;3.244;2023-04-02T13:41:59;10.27;;;5.57;;
22812;SDS011;11573;51.334;3.244;2023-04-02T13:44:32;12.43;;;5.90;;
22812;SDS011;11573;51.334;3.244;2023-04-02T13:47:02;11.82;;;7.63;;
22812;SDS011;11573;51.334;3.244;2023-04-02T13:49:30;10.13;;;5.53;;
22812;SDS011;11573;51.334;3.244;2023-04-02T13:52:00;14.07;;;7.57;;
22812;SDS011;11573;51.334;3.244;2023-04-02T13:54:31;8.43;;;5.45;;
22812;SDS011;11573;51.334;3.244;2023-04-02T13:57:04;12.65;;;7.22;;
22812;SDS011;11573;51.334;3.244;2023-04-02T13:59:32;11.95;;;6.35;;
22812;SDS011;11573;51.334;3.244;2023-04-02T14:02:03;10.90;;;6.32;;
22812;SDS011;11573;51.334;3.244;2023-04-02T14:04:43;9.88;;;5.68;;
22812;SDS011;11573;51.334;3.244;2023-04-02T14:20:52;14.70;;;7.07;;
22812;SDS011;11573;51.334;3.244;2023-04-02T14:32:04;10.88;;;5.35;;
22812;SDS011;11573;51.334;3.244;2023-04-02T14:43:15;8.73;;;3.75;;
22812;SDS011;11573;51.334;3.244;2023-04-02T14:46:04;10.57;;;4.03;;
22812;SDS011;11573;51.334;3.244;2023-04-02T14:48:44;13.10;;;3.97;;
22812;SDS011;11573;51.334;3.244;2023-04-02T14:51:25;9.63;;;4.18;;
22812;SDS011;11573;51.334;3.244;2023-04-02T14:54:05;21.20;;;6.80;;
22812;SDS011;11573;51.334;3.244;2023-04-02T14:56:54;15.85;;;4.05;;
22812;SDS011;11573;51.334;3.244;2023-04-02T14:59:38;16.55;;;4.07;;
22812;SDS011;11573;51.334;3.244;2023-04-02T15:04:57;22.20;;;8.82;;
22812;SDS011;11573;51.334;3.244;2023-04-02T15:07:40;26.45;;;7.35;;
22812;SDS011;11573;51.334;3.244;2023-04-02T15:10:41;13.90;;;3.40;;
22812;SDS011;11573;51.334;3.244;2023-04-02T15:13:11;17.85;;;4.65;;
22812;SDS011;11573;51.334;3.244;2023-04-02T15:15:46;21.05;;;4.22;;
22812;SDS011;11573;51.334;3.244;2023-04-02T15:18:17;22.40;;;5.13;;
22812;SDS011;11573;51.334;3.244;2023-04-02T15:20:52;18.35;;;5.05;;
22812;SDS011;11573;51.334;3.244;2023-04-02T15:23:31;15.32;;;6.13;;
22812;SDS011;11573;51.334;3.244;2023-04-02T15:28:50;27.73;;;5.97;;
22812;SDS011;11573;51.334;3.244;2023-04-02T15:31:24;26.27;;;5.82;;
22812;SDS011;11573;51.334;3.244;2023-04-02T15:34:06;18.40;;;3.60;;
22812;SDS011;11573;51.334;3.244;2023-04-02T15:36:48;17.10;;;5.40;;
22812;SDS011;11573;51.334;3.244;2023-04-02T15:42:15;20.10;;;6.68;;
22812;SDS011;11573;51.334;3.244;2023-04-02T15:45:03;16.63;;;4.20;;
22812;SDS011;11573;51.334;3.244;2023-04-02T15:55:40;15.40;;;3.53;;
22812;SDS011;11573;51.334;3.244;2023-04-02T16:12:13;99.60;;;58.03;;
22812;SDS011;11573;51.334;3.244;2023-04-02T16:14:43;73.28;;;39.10;;
22812;SDS011;11573;51.334;3.244;2023-04-02T16:17:14;46.05;;;21.60;;
22812;SDS011;11573;51.334;3.244;2023-04-02T16:25:55;28.45;;;11.43;;
22812;SDS011;11573;51.334;3.244;2023-04-02T16:28:39;32.97;;;11.80;;
22812;SDS011;11573;51.334;3.244;2023-04-02T16:31:15;29.38;;;12.80;;
22812;SDS011;11573;51.334;3.244;2023-04-02T16:40:23;18.92;;;6.50;;
22812;SDS011;11573;51.334;3.244;2023-04-02T16:42:54;23.08;;;6.53;;
22812;SDS011;11573;51.334;3.244;2023-04-02T16:51:26;19.00;;;7.68;;
22812;SDS011;11573;51.334;3.244;2023-04-02T17:02:36;13.77;;;3.13;;
22812;SDS011;11573;51.334;3.244;2023-04-02T17:08:46;15.55;;;3.58;;
22812;SDS011;11573;51.334;3.244;2023-04-02T17:11:30;39.70;;;12.98;;
22812;SDS011;11573;51.334;3.244;2023-04-02T17:14:10;22.75;;;7.57;;
22812;SDS011;11573;51.334;3.244;2023-04-02T17:16:56;22.67;;;6.25;;
22812;SDS011;11573;51.334;3.244;2023-04-02T17:19:27;25.10;;;5.15;;
22812;SDS011;11573;51.334;3.244;2023-04-02T17:22:00;21.85;;;6.07;;
22812;SDS011;11573;51.334;3.244;2023-04-02T17:24:29;23.63;;;5.20;;
22812;SDS011;11573;51.334;3.244;2023-04-02T17:27:05;24.40;;;7.30;;
22812;SDS011;11573;51.334;3.244;2023-04-02T17:30:00;20.65;;;6.43;;
22812;SDS011;11573;51.334;3.244;2023-04-02T17:32:41;18.13;;;5.45;;
22812;SDS011;11573;51.334;3.244;2023-04-02T17:35:14;17.63;;;4.30;;
22812;SDS011;11573;51.334;3.244;2023-04-02T17:41:06;18.70;;;4.28;;
22812;SDS011;11573;51.334;3.244;2023-04-02T17:43:58;10.88;;;3.40;;
22812;SDS011;11573;51.334;3.244;2023-04-02T17:49:26;40.22;;;14.15;;
22812;SDS011;11573;51.334;3.244;2023-04-02T17:51:59;19.90;;;5.72;;
22812;SDS011;11573;51.334;3.244;2023-04-02T17:57:37;13.73;;;4.60;;
22812;SDS011;11573;51.334;3.244;2023-04-02T18:03:25;16.98;;;4.35;;
22812;SDS011;11573;51.334;3.244;2023-04-02T18:06:09;16.23;;;5.18;;
22812;SDS011;11573;51.334;3.244;2023-04-02T18:16:47;18.50;;;5.95;;
22812;SDS011;11573;51.334;3.244;2023-04-02T18:19:36;16.77;;;4.63;;
22812;SDS011;11573;51.334;3.244;2023-04-02T18:22:16;16.13;;;4.95;;
22812;SDS011;11573;51.334;3.244;2023-04-02T18:25:35;24.17;;;6.32;;
22812;SDS011;11573;51.334;3.244;2023-04-02T18:28:22;19.20;;;5.15;;
22812;SDS011;11573;51.334;3.244;2023-04-02T18:37:12;23.08;;;5.13;;
22812;SDS011;11573;51.334;3.244;2023-04-02T18:48:18;13.55;;;3.30;;
22812;SDS011;11573;51.334;3.244;2023-04-02T18:50:58;16.48;;;5.82;;
22812;SDS011;11573;51.334;3.244;2023-04-02T18:53:27;19.10;;;5.75;;
22812;SDS011;11573;51.334;3.244;2023-04-02T19:01:15;12.60;;;3.20;;
22812;SDS011;11573;51.334;3.244;2023-04-02T19:03:51;11.95;;;5.32;;
22812;SDS011;11573;51.334;3.244;2023-04-02T19:06:37;18.60;;;6.35;;
22812;SDS011;11573;51.334;3.244;2023-04-02T19:14:17;26.15;;;6.70;;
22812;SDS011;11573;51.334;3.244;2023-04-02T19:19:45;17.13;;;4.50;;
22812;SDS011;11573;51.334;3.244;2023-04-02T19:31:10;22.55;;;6.93;;
22812;SDS011;11573;51.334;3.244;2023-04-02T19:33:48;19.17;;;11.03;;
22812;SDS011;11573;51.334;3.244;2023-04-02T19:36:25;16.00;;;5.75;;
22812;SDS011;11573;51.334;3.244;2023-04-02T19:44:48;10.35;;;4.28;;
22812;SDS011;11573;51.334;3.244;2023-04-02T19:47:17;17.48;;;4.28;;
22812;SDS011;11573;51.334;3.244;2023-04-02T19:49:44;11.38;;;3.45;;
22812;SDS011;11573;51.334;3.244;2023-04-02T19:52:11;12.38;;;3.72;;
22812;SDS011;11573;51.334;3.244;2023-04-02T19:54:38;15.48;;;3.92;;
22812;SDS011;11573;51.334;3.244;2023-04-02T19:57:05;13.27;;;2.90;;
22812;SDS011;11573;51.334;3.244;2023-04-02T19:59:33;11.98;;;3.60;;
22812;SDS011;11573;51.334;3.244;2023-04-02T20:01:59;13.20;;;3.33;;
22812;SDS011;11573;51.334;3.244;2023-04-02T20:04:31;14.43;;;4.72;;
22812;SDS011;11573;51.334;3.244;2023-04-02T20:06:58;9.85;;;3.45;;
22812;SDS011;11573;51.334;3.244;2023-04-02T20:09:25;12.35;;;3.22;;
22812;SDS011;11573;51.334;3.244;2023-04-02T20:11:52;10.48;;;3.20;;
22812;SDS011;11573;51.334;3.244;2023-04-02T20:14:18;10.68;;;3.55;;
22812;SDS011;11573;51.334;3.244;2023-04-02T20:16:46;8.23;;;4.22;;
22812;SDS011;11573;51.334;3.244;2023-04-02T20:19:13;11.93;;;3.85;;
22812;SDS011;11573;51.334;3.244;2023-04-02T20:21:40;9.88;;;3.30;;
22812;SDS011;11573;51.334;3.244;2023-04-02T20:24:07;13.95;;;3.97;;
22812;SDS011;11573;51.334;3.244;2023-04-02T20:26:34;13.18;;;3.50;;
22812;SDS011;11573;51.334;3.244;2023-04-02T20:29:01;14.60;;;2.67;;
22812;SDS011;11573;51.334;3.244;2023-04-02T20:31:29;10.98;;;4.00;;
22812;SDS011;11573;51.334;3.244;2023-04-02T20:33:56;10.60;;;3.30;;
22812;SDS011;11573;51.334;3.244;2023-04-02T20:36:24;9.60;;;3.05;;
22812;SDS011;11573;51.334;3.244;2023-04-02T20:38:51;10.75;;;3.58;;
22812;SDS011;11573;51.334;3.244;2023-04-02T20:41:19;8.80;;;3.05;;